createdAt,value
2023-01-19T00:00:23.545Z,0.75
2023-01-19T00:01:26.268Z,0.83
2023-01-19T00:02:27.775Z,0.86
2023-01-19T00:03:29.288Z,0.84
2023-01-19T00:04:30.839Z,0.80
2023-01-19T00:05:34.192Z,0.71
2023-01-19T00:06:35.707Z,0.73
2023-01-19T00:07:37.176Z,0.73
2023-01-19T00:08:39.512Z,0.70
2023-01-19T00:09:40.966Z,0.67
2023-01-19T00:10:44.446Z,0.66
2023-01-19T00:11:45.907Z,0.66
2023-01-19T00:12:47.451Z,0.46
2023-01-19T00:13:52.039Z,0.49
2023-01-19T00:14:53.596Z,0.40
2023-01-19T00:15:55.225Z,0.45
2023-01-19T00:16:57.543Z,0.39
2023-01-19T00:17:58.971Z,0.40
2023-01-19T00:19:00.376Z,0.44
2023-01-19T00:20:01.923Z,0.43
2023-01-19T00:21:03.374Z,0.40
2023-01-19T00:22:06.004Z,0.22
2023-01-19T00:23:08.574Z,0.25
2023-01-19T00:24:10.519Z,0.32
2023-01-19T00:25:14.816Z,0.37
2023-01-19T00:26:17.164Z,0.39
2023-01-19T00:27:18.695Z,0.41
2023-01-19T00:28:23.349Z,0.35
2023-01-19T00:29:24.825Z,0.37
2023-01-19T00:30:26.603Z,0.36
2023-01-19T00:31:30.042Z,0.36
2023-01-19T00:32:31.514Z,0.36
2023-01-19T00:33:33.037Z,0.35
2023-01-19T00:34:39.561Z,0.35
2023-01-19T00:35:42.687Z,0.34
2023-01-19T00:36:44.151Z,0.31
2023-01-19T00:37:46.162Z,0.35
2023-01-19T00:38:47.639Z,0.36
2023-01-19T00:39:49.096Z,0.36
2023-01-19T00:40:51.035Z,0.34
2023-01-19T00:42:11.262Z,0.31
2023-01-19T00:43:12.690Z,0.23
2023-01-19T00:44:14.130Z,0.23
2023-01-19T00:45:21.236Z,0.21
2023-01-19T00:46:27.369Z,0.13
2023-01-19T00:47:28.869Z,0.14
2023-01-19T00:48:30.746Z,0.08
2023-01-19T00:49:32.281Z,0.07
2023-01-19T00:50:34.459Z,0.07
2023-01-19T00:51:36.282Z,0.07
2023-01-19T00:52:39.206Z,0.03
2023-01-19T00:53:40.615Z,-0.02
2023-01-19T00:54:42.044Z,0.06
2023-01-19T00:55:43.519Z,0.12
2023-01-19T00:56:45.621Z,0.14
2023-01-19T00:57:47.403Z,0.18
2023-01-19T00:58:48.816Z,0.17
2023-01-19T00:59:50.296Z,0.15
2023-01-19T01:00:53.847Z,0.23
2023-01-19T01:01:55.807Z,0.27
2023-01-19T01:02:57.734Z,0.27
2023-01-19T01:03:59.880Z,0.25
2023-01-19T01:05:02.883Z,0.27
2023-01-19T01:06:07.497Z,0.25
2023-01-19T01:07:14.363Z,0.19
2023-01-19T01:08:15.875Z,0.21
2023-01-19T01:09:19.598Z,0.15
2023-01-19T01:10:24.939Z,0.07
2023-01-19T01:11:26.396Z,0.08
2023-01-19T01:12:28.614Z,0.11
2023-01-19T01:13:30.442Z,0.11
2023-01-19T01:14:32.085Z,0.12
2023-01-19T01:15:34.392Z,0.15
2023-01-19T01:16:36.173Z,0.17
2023-01-19T01:17:38.093Z,0.12
2023-01-19T01:18:39.532Z,0.16
2023-01-19T01:19:41.650Z,0.17
2023-01-19T01:20:43.136Z,0.14
2023-01-19T01:21:44.713Z,0.11
2023-01-19T01:22:48.384Z,0.12
2023-01-19T01:23:49.811Z,0.08
2023-01-19T01:24:51.276Z,0.10
2023-01-19T01:25:52.738Z,0.11
2023-01-19T01:26:54.455Z,0.09
2023-01-19T01:27:55.927Z,0.11
2023-01-19T01:28:57.411Z,0.10
2023-01-19T01:29:58.887Z,0.13
2023-01-19T01:31:00.451Z,0.09
2023-01-19T01:32:02.502Z,0.08
2023-01-19T01:33:04.067Z,0.06
2023-01-19T01:34:05.623Z,-0.03
2023-01-19T01:35:09.048Z,-0.04
2023-01-19T01:36:11.915Z,-0.01
2023-01-19T01:37:13.454Z,-0.07
2023-01-19T01:38:15.446Z,-0.07
2023-01-19T01:39:16.926Z,-0.04
2023-01-19T01:40:19.338Z,-0.08
2023-01-19T01:41:21.956Z,-0.10
2023-01-19T01:42:29.416Z,-0.08
2023-01-19T01:44:01.764Z,-0.05
2023-01-19T01:45:07.590Z,-0.13
2023-01-19T01:46:09.332Z,-0.14
2023-01-19T01:47:11.008Z,-0.16
2023-01-19T01:48:17.623Z,-0.18
2023-01-19T01:49:19.132Z,-0.20
2023-01-19T01:50:23.455Z,-0.24
2023-01-19T01:51:28.387Z,-0.24
2023-01-19T01:52:33.122Z,-0.21
2023-01-19T01:53:37.295Z,-0.23
2023-01-19T01:54:39.083Z,-0.20
2023-01-19T01:55:46.696Z,-0.17
2023-01-19T01:56:51.737Z,-0.17
2023-01-19T01:57:58.200Z,-0.18
2023-01-19T01:59:03.632Z,-0.17
2023-01-19T02:00:06.649Z,-0.17
2023-01-19T02:01:31.677Z,-0.15
2023-01-19T02:02:51.022Z,-0.14
2023-01-19T02:03:53.627Z,-0.20
2023-01-19T02:05:06.302Z,-0.18
2023-01-19T02:06:08.636Z,-0.18
2023-01-19T02:07:33.273Z,-0.20
2023-01-19T02:09:00.663Z,-0.27
2023-01-19T02:10:21.014Z,-0.32
2023-01-19T02:11:41.763Z,-0.32
2023-01-19T02:13:02.410Z,-0.30
2023-01-19T02:15:15.140Z,-0.23
2023-01-19T02:16:17.700Z,-0.23
2023-01-19T02:17:19.314Z,-0.24
2023-01-19T02:18:23.260Z,-0.27
2023-01-19T02:19:34.959Z,-0.24
2023-01-19T02:20:38.161Z,-0.21
2023-01-19T02:21:54.345Z,-0.24
2023-01-19T02:23:01.992Z,-0.22
2023-01-19T02:24:04.362Z,-0.18
2023-01-19T02:25:07.409Z,-0.20
2023-01-19T02:26:11.417Z,-0.26
2023-01-19T02:27:13.510Z,-0.32
2023-01-19T02:28:15.469Z,-0.33
2023-01-19T02:29:20.337Z,-0.33
2023-01-19T02:30:22.016Z,-0.33
2023-01-19T02:31:24.341Z,-0.34
2023-01-19T02:32:26.677Z,-0.38
2023-01-19T02:33:28.369Z,-0.40
2023-01-19T02:34:30.250Z,-0.43
2023-01-19T02:35:32.494Z,-0.44
2023-01-19T02:36:53.415Z,-0.57
2023-01-19T02:37:55.422Z,-0.61
2023-01-19T02:39:00.175Z,-0.62
2023-01-19T02:40:04.348Z,-0.63
2023-01-19T02:41:08.384Z,-0.68
2023-01-19T02:42:14.572Z,-0.66
2023-01-19T02:43:19.086Z,-0.66
2023-01-19T02:44:23.563Z,-0.68
2023-01-19T02:45:25.183Z,-0.69
2023-01-19T02:46:26.917Z,-0.68
2023-01-19T02:47:38.847Z,-0.71
2023-01-19T02:48:40.412Z,-0.71
2023-01-19T02:49:42.436Z,-0.69
2023-01-19T02:50:49.189Z,-0.69
2023-01-19T02:51:50.660Z,-0.70
2023-01-19T02:52:55.556Z,-0.72
2023-01-19T02:54:22.253Z,-0.73
2023-01-19T02:55:29.986Z,-0.74
2023-01-19T02:56:37.268Z,-0.77
2023-01-19T02:58:16.044Z,-0.79
2023-01-19T02:59:48.529Z,-0.85
2023-01-19T03:01:12.590Z,-0.87
2023-01-19T03:02:40.811Z,-0.87
2023-01-19T03:04:03.286Z,-0.89
2023-01-19T03:05:33.502Z,-0.89
2023-01-19T03:06:47.034Z,-0.94
2023-01-19T03:08:22.093Z,-0.97
2023-01-19T03:09:46.503Z,-1.02
2023-01-19T03:11:01.429Z,-1.04
2023-01-19T03:12:25.008Z,-1.14
2023-01-19T03:13:48.932Z,-1.12
2023-01-19T03:14:54.134Z,-1.09
2023-01-19T03:16:12.066Z,-1.09
2023-01-19T03:17:17.780Z,-1.13
2023-01-19T03:18:23.516Z,-1.11
2023-01-19T03:19:34.903Z,-1.15
2023-01-19T03:20:37.865Z,-1.19
2023-01-19T03:21:45.565Z,-1.24
2023-01-19T03:22:51.820Z,-1.21
2023-01-19T03:23:56.901Z,-1.23
2023-01-19T03:25:01.615Z,-1.21
2023-01-19T03:26:06.090Z,-1.34
2023-01-19T03:27:16.264Z,-1.42
2023-01-19T03:28:22.881Z,-1.34
2023-01-19T03:29:30.042Z,-1.29
2023-01-19T03:30:42.543Z,-1.23
2023-01-19T03:31:47.850Z,-1.20
2023-01-19T03:32:57.300Z,-1.23
2023-01-19T03:34:06.682Z,-1.33
2023-01-19T03:35:12.715Z,-1.34
2023-01-19T03:36:33.886Z,-1.32
2023-01-19T03:37:41.338Z,-1.30
2023-01-19T03:38:46.089Z,-1.26
2023-01-19T03:39:47.590Z,-1.27
2023-01-19T03:40:50.016Z,-1.24
2023-01-19T03:41:58.585Z,-1.33
2023-01-19T03:43:03.076Z,-1.28
2023-01-19T03:44:07.644Z,-1.24
2023-01-19T03:45:09.938Z,-1.26
2023-01-19T03:46:12.581Z,-1.22
2023-01-19T03:47:15.033Z,-1.29
2023-01-19T03:48:17.049Z,-1.29
2023-01-19T03:49:19.020Z,-1.29
2023-01-19T03:50:30.763Z,-1.30
2023-01-19T03:51:36.376Z,-1.30
2023-01-19T03:52:37.860Z,-1.34
2023-01-19T03:53:39.302Z,-1.29
2023-01-19T03:54:41.133Z,-1.37
2023-01-19T03:55:45.646Z,-1.49
2023-01-19T03:56:47.073Z,-1.43
2023-01-19T03:57:48.819Z,-1.37
2023-01-19T03:58:50.965Z,-1.38
2023-01-19T03:59:53.380Z,-1.33
2023-01-19T04:00:54.978Z,-1.25
2023-01-19T04:01:56.486Z,-1.35
2023-01-19T04:02:58.989Z,-1.32
2023-01-19T04:04:01.020Z,-1.33
2023-01-19T04:05:02.480Z,-1.27
2023-01-19T04:06:04.074Z,-1.31
2023-01-19T04:07:05.619Z,-1.27
2023-01-19T04:08:08.231Z,-1.21
2023-01-19T04:09:10.318Z,-1.16
2023-01-19T04:10:12.817Z,-1.14
2023-01-19T04:11:14.425Z,-1.16
2023-01-19T04:12:16.160Z,-1.38
2023-01-19T04:13:17.611Z,-1.37
2023-01-19T04:14:19.121Z,-1.36
2023-01-19T04:15:20.524Z,-1.39
2023-01-19T04:16:23.137Z,-1.30
2023-01-19T04:17:24.562Z,-1.24
2023-01-19T04:18:26.484Z,-1.41
2023-01-19T04:19:27.923Z,-1.43
2023-01-19T04:20:29.496Z,-1.35
2023-01-19T04:21:30.936Z,-1.29
2023-01-19T04:22:32.656Z,-1.22
2023-01-19T04:23:34.157Z,-1.19
2023-01-19T04:24:35.585Z,-1.12
2023-01-19T04:25:38.886Z,-1.16
2023-01-19T04:26:40.431Z,-1.14
2023-01-19T04:27:41.857Z,-1.20
2023-01-19T04:28:43.350Z,-1.17
2023-01-19T04:29:44.813Z,-1.14
2023-01-19T04:30:50.611Z,-1.09
2023-01-19T04:31:52.064Z,-1.05
2023-01-19T04:32:55.756Z,-1.04
2023-01-19T04:33:57.335Z,-1.06
2023-01-19T04:34:59.362Z,-1.00
2023-01-19T04:36:01.701Z,-0.95
2023-01-19T04:37:03.127Z,-0.95
2023-01-19T04:38:04.867Z,-0.92
2023-01-19T04:39:08.415Z,-0.88
2023-01-19T04:40:10.459Z,-0.84
2023-01-19T04:41:11.956Z,-0.86
2023-01-19T04:42:13.812Z,-0.87
2023-01-19T04:43:15.665Z,-0.87
2023-01-19T04:44:17.668Z,-0.89
2023-01-19T04:45:19.129Z,-0.91
2023-01-19T04:46:20.580Z,-0.95
2023-01-19T04:47:22.047Z,-0.96
2023-01-19T04:48:24.236Z,-0.95
2023-01-19T04:49:25.765Z,-0.96
2023-01-19T04:50:27.205Z,-0.98
2023-01-19T04:51:28.845Z,-1.02
2023-01-19T04:52:37.069Z,-1.04
2023-01-19T04:53:38.959Z,-1.05
2023-01-19T04:54:40.414Z,-1.06
2023-01-19T04:55:42.201Z,-1.09
2023-01-19T04:56:43.630Z,-1.09
2023-01-19T04:57:45.922Z,-1.12
2023-01-19T04:58:47.708Z,-1.11
2023-01-19T04:59:49.114Z,-1.09
2023-01-19T05:00:52.149Z,-1.04
2023-01-19T05:01:53.597Z,-1.01
2023-01-19T05:02:55.077Z,-1.02
2023-01-19T05:03:59.651Z,-0.99
2023-01-19T05:05:01.218Z,-1.00
2023-01-19T05:06:02.735Z,-1.04
2023-01-19T05:07:04.159Z,-1.08
2023-01-19T05:08:05.869Z,-1.05
2023-01-19T05:09:09.031Z,-1.01
2023-01-19T05:10:11.889Z,-1.01
2023-01-19T05:11:13.324Z,-1.04
2023-01-19T05:12:14.866Z,-1.13
2023-01-19T05:13:16.388Z,-1.18
2023-01-19T05:14:17.847Z,-1.20
2023-01-19T05:15:19.341Z,-1.18
2023-01-19T05:16:20.962Z,-1.13
2023-01-19T05:17:22.581Z,-1.11
2023-01-19T05:18:24.332Z,-1.08
2023-01-19T05:19:25.808Z,-1.06
2023-01-19T05:20:27.317Z,-1.10
2023-01-19T05:21:28.789Z,-1.12
2023-01-19T05:22:30.327Z,-1.11
2023-01-19T05:23:33.025Z,-1.18
2023-01-19T05:24:34.502Z,-1.17
2023-01-19T05:25:35.944Z,-1.24
2023-01-19T05:26:37.645Z,-1.26
2023-01-19T05:27:39.232Z,-1.29
2023-01-19T05:28:40.758Z,-1.24
2023-01-19T05:29:42.170Z,-1.22
2023-01-19T05:30:43.791Z,-1.25
2023-01-19T05:31:45.345Z,-1.37
2023-01-19T05:32:46.849Z,-1.41
2023-01-19T05:33:49.348Z,-1.42
2023-01-19T05:34:50.851Z,-1.37
2023-01-19T05:35:53.855Z,-1.34
2023-01-19T05:36:55.310Z,-1.29
2023-01-19T05:37:56.810Z,-1.24
2023-01-19T05:38:58.349Z,-1.20
2023-01-19T05:39:59.827Z,-1.22
2023-01-19T05:41:01.273Z,-1.18
2023-01-19T05:42:02.750Z,-1.21
2023-01-19T05:43:05.315Z,-1.21
2023-01-19T05:44:07.001Z,-1.24
2023-01-19T05:45:09.097Z,-1.28
2023-01-19T05:46:10.587Z,-1.29
2023-01-19T05:47:12.028Z,-1.30
2023-01-19T05:48:13.632Z,-1.24
2023-01-19T05:49:15.418Z,-1.27
2023-01-19T05:50:16.920Z,-1.21
2023-01-19T05:51:18.629Z,-1.18
2023-01-19T05:52:20.225Z,-1.19
2023-01-19T05:53:21.666Z,-1.18
2023-01-19T05:54:24.057Z,-1.16
2023-01-19T05:55:26.119Z,-1.37
2023-01-19T05:56:27.860Z,-1.35
2023-01-19T05:57:29.278Z,-1.34
2023-01-19T05:58:31.170Z,-1.35
2023-01-19T05:59:32.912Z,-1.35
2023-01-19T06:00:34.353Z,-1.40
2023-01-19T06:01:38.957Z,-1.37
2023-01-19T06:02:41.379Z,-1.36
2023-01-19T06:03:42.798Z,-1.32
2023-01-19T06:04:45.149Z,-1.28
2023-01-19T06:05:46.659Z,-1.19
2023-01-19T06:06:48.872Z,-1.18
2023-01-19T06:07:50.291Z,-1.18
2023-01-19T06:08:51.708Z,-1.17
2023-01-19T06:09:53.475Z,-1.16
2023-01-19T06:10:54.963Z,-1.22
2023-01-19T06:11:57.757Z,-1.28
2023-01-19T06:12:59.510Z,-1.26
2023-01-19T06:14:01.967Z,-1.21
2023-01-19T06:15:03.624Z,-1.16
2023-01-19T06:16:06.032Z,-1.17
2023-01-19T06:17:07.733Z,-1.18
2023-01-19T06:18:09.501Z,-1.15
2023-01-19T06:19:11.375Z,-1.12
2023-01-19T06:20:14.133Z,-1.10
2023-01-19T06:21:15.566Z,-1.10
2023-01-19T06:22:17.112Z,-1.13
2023-01-19T06:23:18.618Z,-1.09
2023-01-19T06:24:20.452Z,-1.05
2023-01-19T06:25:21.954Z,-1.17
2023-01-19T06:26:23.421Z,-1.32
2023-01-19T06:27:24.824Z,-1.36
2023-01-19T06:28:26.583Z,-1.31
2023-01-19T06:29:28.763Z,-1.24
2023-01-19T06:30:30.985Z,-1.16
2023-01-19T06:31:32.456Z,-1.13
2023-01-19T06:32:34.006Z,-1.09
2023-01-19T06:33:35.503Z,-1.09
2023-01-19T06:34:36.953Z,-1.08
2023-01-19T06:35:38.436Z,-1.07
2023-01-19T06:36:39.917Z,-1.03
2023-01-19T06:37:41.781Z,-1.05
2023-01-19T06:38:43.297Z,-1.08
2023-01-19T06:39:45.756Z,-1.11
2023-01-19T06:40:54.389Z,-1.18
2023-01-19T06:41:55.809Z,-1.17
2023-01-19T06:42:57.401Z,-1.18
2023-01-19T06:43:59.208Z,-1.19
2023-01-19T06:45:00.771Z,-1.21
2023-01-19T06:46:02.605Z,-1.22
2023-01-19T06:47:14.941Z,-1.27
2023-01-19T06:48:17.412Z,-1.27
2023-01-19T06:49:18.971Z,-1.29
2023-01-19T06:50:20.752Z,-1.31
2023-01-19T06:51:22.746Z,-1.28
2023-01-19T06:52:24.249Z,-1.29
2023-01-19T06:53:28.098Z,-1.27
2023-01-19T06:54:29.999Z,-1.27
2023-01-19T06:55:31.431Z,-1.25
2023-01-19T06:56:32.963Z,-1.27
2023-01-19T06:57:34.421Z,-1.30
2023-01-19T06:58:35.957Z,-1.35
2023-01-19T06:59:41.126Z,-1.38
2023-01-19T07:00:43.170Z,-1.37
2023-01-19T07:01:44.936Z,-1.33
2023-01-19T07:02:46.596Z,-1.29
2023-01-19T07:03:48.180Z,-1.27
2023-01-19T07:04:49.649Z,-1.33
2023-01-19T07:05:52.813Z,-1.25
2023-01-19T07:06:54.367Z,-1.26
2023-01-19T07:07:56.828Z,-1.29
2023-01-19T07:09:00.251Z,-1.31
2023-01-19T07:10:01.832Z,-1.34
2023-01-19T07:11:25.306Z,-1.29
2023-01-19T07:12:30.545Z,-1.31
2023-01-19T07:13:36.342Z,-1.36
2023-01-19T07:14:38.569Z,-1.39
2023-01-19T07:15:39.995Z,-1.39
2023-01-19T07:16:41.683Z,-1.40
2023-01-19T07:17:44.062Z,-1.39
2023-01-19T07:18:48.377Z,-1.44
2023-01-19T07:19:49.908Z,-1.42
2023-01-19T07:20:51.968Z,-1.39
2023-01-19T07:21:53.438Z,-1.35
2023-01-19T07:22:58.520Z,-1.38
2023-01-19T07:24:00.340Z,-1.38
2023-01-19T07:25:02.143Z,-1.39
2023-01-19T07:26:03.676Z,-1.42
2023-01-19T07:27:05.481Z,-1.39
2023-01-19T07:28:07.375Z,-1.36
2023-01-19T07:29:08.920Z,-1.38
2023-01-19T07:30:11.266Z,-1.36
2023-01-19T07:31:12.906Z,-1.31
2023-01-19T07:32:15.090Z,-1.25
2023-01-19T07:33:16.527Z,-1.19
2023-01-19T07:34:18.077Z,-1.15
2023-01-19T07:35:19.528Z,-1.14
2023-01-19T07:36:20.959Z,-1.15
2023-01-19T07:37:22.708Z,-1.14
2023-01-19T07:38:24.263Z,-1.16
2023-01-19T07:39:25.690Z,-1.19
2023-01-19T07:40:27.639Z,-1.19
2023-01-19T07:41:29.049Z,-1.18
2023-01-19T07:42:30.544Z,-1.19
2023-01-19T07:43:32.988Z,-1.23
2023-01-19T07:44:34.436Z,-1.24
2023-01-19T07:45:36.468Z,-1.24
2023-01-19T07:46:38.023Z,-1.30
2023-01-19T07:47:39.486Z,-1.33
2023-01-19T07:48:41.004Z,-1.35
2023-01-19T07:49:42.551Z,-1.32
2023-01-19T07:50:44.808Z,-1.34
2023-01-19T07:51:46.460Z,-1.37
2023-01-19T07:52:50.685Z,-1.38
2023-01-19T07:53:52.155Z,-1.36
2023-01-19T07:54:53.629Z,-1.35
2023-01-19T07:55:56.596Z,-1.37
2023-01-19T07:56:58.111Z,-1.39
2023-01-19T07:57:59.553Z,-1.37
2023-01-19T07:59:01.126Z,-1.39
2023-01-19T08:00:03.873Z,-1.37
2023-01-19T08:01:11.141Z,-1.38
2023-01-19T08:02:12.779Z,-1.39
2023-01-19T08:03:14.304Z,-1.40
2023-01-19T08:04:15.757Z,-1.40
2023-01-19T08:05:18.193Z,-1.43
2023-01-19T08:06:23.482Z,-1.40
2023-01-19T08:07:24.988Z,-1.40
2023-01-19T08:08:26.484Z,-1.39
2023-01-19T08:09:27.928Z,-1.40
2023-01-19T08:10:29.395Z,-1.45
2023-01-19T08:11:31.477Z,-1.45
2023-01-19T08:12:33.051Z,-1.45
2023-01-19T08:13:34.671Z,-1.43
2023-01-19T08:14:36.071Z,-1.41
2023-01-19T08:15:37.954Z,-1.38
2023-01-19T08:16:39.606Z,-1.34
2023-01-19T08:17:41.041Z,-1.32
2023-01-19T08:18:42.701Z,-1.30
2023-01-19T08:19:44.668Z,-1.26
2023-01-19T08:20:46.798Z,-1.24
2023-01-19T08:21:48.215Z,-1.26
2023-01-19T08:22:50.023Z,-1.28
2023-01-19T08:23:55.032Z,-1.29
2023-01-19T08:24:56.601Z,-1.25
2023-01-19T08:25:58.138Z,-1.19
2023-01-19T08:27:01.235Z,-1.15
2023-01-19T08:28:03.953Z,-1.11
2023-01-19T08:29:05.916Z,-1.06
2023-01-19T08:30:08.221Z,-1.10
2023-01-19T08:31:19.722Z,-1.07
2023-01-19T08:32:23.282Z,-0.95
2023-01-19T08:33:25.475Z,-0.86
2023-01-19T08:34:27.186Z,-0.79
2023-01-19T08:35:28.664Z,-0.73
2023-01-19T08:36:30.364Z,-0.70
2023-01-19T08:37:34.091Z,-0.63
2023-01-19T08:38:35.771Z,-0.55
2023-01-19T08:39:37.159Z,-0.51
2023-01-19T08:40:40.947Z,-0.48
2023-01-19T08:41:42.410Z,-0.41
2023-01-19T08:42:43.867Z,-0.39
2023-01-19T08:43:45.690Z,-0.32
2023-01-19T08:44:57.632Z,-0.36
2023-01-19T08:45:59.459Z,-0.31
2023-01-19T08:47:01.137Z,-0.28
2023-01-19T08:48:02.974Z,-0.25
2023-01-19T08:49:04.443Z,-0.23
2023-01-19T08:50:06.428Z,-0.18
2023-01-19T08:51:08.132Z,-0.14
2023-01-19T08:52:12.365Z,-0.11
2023-01-19T08:53:14.821Z,-0.13
2023-01-19T08:54:18.551Z,-0.19
2023-01-19T08:55:20.236Z,-0.17
2023-01-19T08:56:21.790Z,-0.16
2023-01-19T08:57:23.251Z,-0.20
2023-01-19T08:58:24.731Z,-0.17
2023-01-19T08:59:26.344Z,-0.14
2023-01-19T09:00:27.949Z,-0.10
2023-01-19T09:01:30.025Z,-0.09
2023-01-19T09:02:31.705Z,-0.07
2023-01-19T09:03:33.326Z,-0.06
2023-01-19T09:04:38.129Z,-0.02
2023-01-19T09:05:40.883Z,-0.03
2023-01-19T09:06:42.417Z,-0.06
2023-01-19T09:07:45.709Z,-0.06
2023-01-19T09:08:50.908Z,-0.01
2023-01-19T09:09:52.372Z,0.03
2023-01-19T09:10:53.876Z,0.03
2023-01-19T09:11:55.854Z,0.11
2023-01-19T09:12:57.913Z,0.17
2023-01-19T09:13:59.384Z,0.26
2023-01-19T09:15:01.045Z,0.33
2023-01-19T09:16:03.840Z,0.44
2023-01-19T09:17:06.530Z,0.54
2023-01-19T09:18:14.091Z,0.89
2023-01-19T09:19:23.020Z,1.17
2023-01-19T09:20:28.508Z,1.43
2023-01-19T09:21:36.570Z,1.70
2023-01-19T09:22:39.645Z,2.30
2023-01-19T09:23:41.026Z,2.55
2023-01-19T09:24:42.477Z,2.98
2023-01-19T09:25:46.275Z,3.73
2023-01-19T09:26:48.304Z,4.45
2023-01-19T09:27:49.948Z,5.30
2023-01-19T09:28:51.530Z,5.92
2023-01-19T09:29:54.100Z,6.51
2023-01-19T09:30:56.095Z,7.38
2023-01-19T09:31:57.738Z,7.93
2023-01-19T09:33:06.380Z,8.36
2023-01-19T09:34:07.885Z,8.23
2023-01-19T09:35:09.739Z,7.52
2023-01-19T09:36:11.234Z,6.87
2023-01-19T09:37:13.418Z,6.74
2023-01-19T09:38:16.829Z,6.48
2023-01-19T09:39:18.427Z,5.74
2023-01-19T09:40:20.750Z,5.18
2023-01-19T09:41:22.706Z,4.85
2023-01-19T09:42:42.749Z,4.66
2023-01-19T09:43:48.834Z,4.41
2023-01-19T09:44:51.096Z,4.26
2023-01-19T09:45:57.614Z,4.07
2023-01-19T09:47:01.923Z,3.84
2023-01-19T09:48:22.819Z,3.62
2023-01-19T09:49:33.028Z,3.51
2023-01-19T09:50:39.832Z,3.20
2023-01-19T09:51:46.521Z,2.97
2023-01-19T09:52:57.192Z,2.73
2023-01-19T09:54:20.776Z,2.58
2023-01-19T09:55:27.041Z,2.47
2023-01-19T09:56:30.158Z,2.19
2023-01-19T09:57:33.598Z,2.04
2023-01-19T09:58:35.146Z,2.11
2023-01-19T09:59:38.702Z,2.10
2023-01-19T10:00:43.002Z,2.16
2023-01-19T10:02:07.926Z,2.14
2023-01-19T10:03:16.582Z,2.09
2023-01-19T10:04:27.065Z,2.02
2023-01-19T10:05:41.758Z,2.01
2023-01-19T10:06:43.481Z,1.93
2023-01-19T10:08:09.085Z,1.99
2023-01-19T10:09:32.042Z,2.01
2023-01-19T10:10:35.365Z,2.00
2023-01-19T10:11:52.653Z,1.84
2023-01-19T10:13:25.999Z,1.76
2023-01-19T10:14:42.959Z,1.73
2023-01-19T10:16:04.728Z,1.76
2023-01-19T10:17:12.749Z,1.67
2023-01-19T10:18:23.062Z,1.58
2023-01-19T10:19:30.930Z,1.39
2023-01-19T10:20:40.022Z,1.46
2023-01-19T10:21:44.905Z,1.50
2023-01-19T10:22:51.077Z,1.47
2023-01-19T10:23:57.499Z,1.51
2023-01-19T10:25:01.615Z,1.58
2023-01-19T10:26:15.439Z,1.61
2023-01-19T10:27:20.821Z,1.64
2023-01-19T10:28:25.802Z,1.60
2023-01-19T10:29:38.181Z,1.64
2023-01-19T10:30:42.887Z,1.66
2023-01-19T10:31:46.339Z,1.70
2023-01-19T10:32:48.473Z,1.73
2023-01-19T10:33:51.150Z,1.74
2023-01-19T10:34:53.945Z,1.73
2023-01-19T10:35:55.829Z,1.73
2023-01-19T10:37:04.660Z,1.61
2023-01-19T10:38:06.468Z,1.56
2023-01-19T10:39:11.548Z,1.58
2023-01-19T10:40:13.109Z,1.65
2023-01-19T10:41:19.573Z,1.55
2023-01-19T10:42:21.455Z,1.48
2023-01-19T10:43:36.820Z,1.44
2023-01-19T10:44:38.560Z,1.46
2023-01-19T10:45:40.111Z,1.41
2023-01-19T10:46:47.136Z,1.41
2023-01-19T10:47:50.089Z,1.45
2023-01-19T10:48:53.638Z,1.42
2023-01-19T10:49:55.313Z,1.46
2023-01-19T10:51:03.003Z,1.51
2023-01-19T10:52:19.268Z,1.51
2023-01-19T10:53:22.799Z,1.48
2023-01-19T10:54:26.490Z,1.48
2023-01-19T10:55:29.986Z,1.40
2023-01-19T10:56:35.482Z,1.36
2023-01-19T10:57:43.391Z,1.40
2023-01-19T10:58:45.076Z,1.43
2023-01-19T10:59:50.782Z,1.39
2023-01-19T11:00:52.593Z,1.37
2023-01-19T11:02:30.670Z,1.42
2023-01-19T11:03:32.666Z,1.43
2023-01-19T11:04:34.315Z,1.50
2023-01-19T11:05:35.896Z,1.50
2023-01-19T11:06:37.401Z,1.45
2023-01-19T11:07:38.955Z,1.39
2023-01-19T11:08:40.805Z,1.37
2023-01-19T11:09:42.381Z,1.41
2023-01-19T11:10:54.029Z,1.43
2023-01-19T11:11:55.843Z,1.44
2023-01-19T11:13:02.759Z,1.39
2023-01-19T11:14:12.843Z,1.38
2023-01-19T11:15:20.988Z,1.44
2023-01-19T11:16:29.064Z,1.54
2023-01-19T11:17:30.588Z,1.58
2023-01-19T11:18:35.754Z,1.49
2023-01-19T11:19:37.343Z,1.52
2023-01-19T11:20:49.903Z,1.48
2023-01-19T11:21:52.084Z,1.52
2023-01-19T11:23:08.258Z,1.61
2023-01-19T11:24:13.264Z,1.65
2023-01-19T11:25:28.304Z,1.73
2023-01-19T11:26:40.737Z,1.67
2023-01-19T11:27:51.275Z,1.62
2023-01-19T11:28:55.934Z,1.60
2023-01-19T11:30:01.221Z,1.53
2023-01-19T11:31:20.603Z,1.49
2023-01-19T11:32:26.746Z,1.56
2023-01-19T11:33:36.050Z,1.57
2023-01-19T11:34:39.362Z,1.66
2023-01-19T11:35:41.648Z,1.75
2023-01-19T11:36:55.988Z,1.81
2023-01-19T11:38:23.151Z,1.86
2023-01-19T11:39:28.167Z,1.93
2023-01-19T11:40:29.671Z,1.97
2023-01-19T11:41:35.903Z,1.99
2023-01-19T11:42:37.562Z,1.93
2023-01-19T11:43:48.668Z,2.00
2023-01-19T11:45:14.014Z,1.99
2023-01-19T11:46:17.585Z,1.95
2023-01-19T11:47:27.339Z,2.02
2023-01-19T11:48:56.674Z,1.85
2023-01-19T11:50:20.510Z,1.78
2023-01-19T11:51:23.888Z,1.87
2023-01-19T11:52:37.958Z,1.96
2023-01-19T11:53:40.239Z,1.99
2023-01-19T11:54:47.711Z,1.99
2023-01-19T11:56:10.311Z,2.08
2023-01-19T11:57:15.101Z,2.11
2023-01-19T11:58:18.784Z,2.15
2023-01-19T11:59:23.129Z,2.19
2023-01-19T12:00:29.335Z,2.20
2023-01-19T12:01:34.140Z,2.17
2023-01-19T12:02:45.910Z,2.23
2023-01-19T12:04:13.153Z,2.29
2023-01-19T12:05:18.223Z,2.35
2023-01-19T12:06:27.102Z,2.37
2023-01-19T12:07:32.853Z,2.42
2023-01-19T12:08:41.121Z,2.39
2023-01-19T12:09:48.965Z,2.43
2023-01-19T12:10:52.998Z,2.38
2023-01-19T12:12:03.964Z,2.38
2023-01-19T12:13:05.786Z,2.43
2023-01-19T12:14:19.387Z,2.44
2023-01-19T12:15:53.335Z,2.36
2023-01-19T12:16:59.086Z,2.33
2023-01-19T12:18:03.132Z,2.25
2023-01-19T12:19:15.824Z,2.13
2023-01-19T12:20:26.519Z,2.22
2023-01-19T12:21:28.081Z,2.29
2023-01-19T12:22:35.360Z,2.28
2023-01-19T12:23:58.472Z,2.30
2023-01-19T12:25:12.167Z,2.17
2023-01-19T12:26:16.548Z,2.15
2023-01-19T12:27:42.595Z,1.96
2023-01-19T12:28:49.549Z,1.87
2023-01-19T12:29:53.874Z,1.95
2023-01-19T12:30:56.126Z,1.93
2023-01-19T12:32:12.956Z,2.01
2023-01-19T12:33:28.372Z,2.09
2023-01-19T12:34:44.164Z,2.10
2023-01-19T12:36:03.886Z,2.15
2023-01-19T12:37:07.766Z,2.12
2023-01-19T12:38:40.761Z,2.13
2023-01-19T12:39:49.033Z,2.05
2023-01-19T12:40:52.460Z,2.06
2023-01-19T12:42:16.936Z,2.19
2023-01-19T12:43:22.136Z,2.20
2023-01-19T12:44:28.049Z,2.16
2023-01-19T12:45:37.924Z,2.18
2023-01-19T12:47:06.248Z,2.21
2023-01-19T12:48:25.347Z,2.22
2023-01-19T12:49:28.892Z,2.09
2023-01-19T12:50:40.208Z,1.88
2023-01-19T12:51:41.872Z,1.95
2023-01-19T12:52:51.823Z,2.01
2023-01-19T12:53:57.017Z,2.08
2023-01-19T12:55:02.713Z,2.15
2023-01-19T12:56:10.070Z,1.95
2023-01-19T12:57:33.881Z,1.86
2023-01-19T12:58:35.358Z,1.94
2023-01-19T12:59:37.658Z,1.99
2023-01-19T13:00:42.725Z,2.05
2023-01-19T13:01:44.277Z,2.10
2023-01-19T13:02:47.751Z,2.14
2023-01-19T13:04:09.317Z,2.18
2023-01-19T13:05:15.040Z,2.25
2023-01-19T13:06:16.566Z,2.35
2023-01-19T13:07:19.228Z,2.41
2023-01-19T13:08:30.940Z,2.40
2023-01-19T13:09:33.979Z,2.47
2023-01-19T13:10:54.325Z,2.51
2023-01-19T13:12:13.953Z,2.53
2023-01-19T13:13:33.068Z,2.43
2023-01-19T13:14:36.623Z,2.41
2023-01-19T13:15:39.264Z,2.42
2023-01-19T13:16:40.685Z,2.45
2023-01-19T13:17:53.399Z,2.45
2023-01-19T13:18:58.973Z,2.50
2023-01-19T13:20:18.828Z,2.46
2023-01-19T13:21:32.515Z,2.51
2023-01-19T13:22:50.890Z,2.47
2023-01-19T13:23:55.755Z,2.51
2023-01-19T13:25:21.819Z,2.45
2023-01-19T13:26:27.256Z,2.47
2023-01-19T13:27:28.748Z,2.50
2023-01-19T13:28:35.800Z,2.45
2023-01-19T13:29:41.192Z,2.52
2023-01-19T13:31:02.712Z,2.56
2023-01-19T13:32:15.901Z,2.54
2023-01-19T13:33:22.802Z,2.51
2023-01-19T13:34:27.846Z,2.49
2023-01-19T13:35:29.431Z,2.49
2023-01-19T13:36:35.299Z,2.49
2023-01-19T13:37:43.073Z,2.43
2023-01-19T13:38:44.787Z,2.37
2023-01-19T13:39:50.167Z,2.31
2023-01-19T13:40:53.803Z,2.27
2023-01-19T13:42:00.539Z,2.37
2023-01-19T13:43:02.891Z,2.37
2023-01-19T13:44:27.673Z,2.38
2023-01-19T13:45:38.092Z,2.45
2023-01-19T13:46:40.686Z,2.48
2023-01-19T13:47:45.691Z,2.48
2023-01-19T13:49:04.506Z,2.46
2023-01-19T13:50:06.621Z,2.43
2023-01-19T13:51:17.845Z,2.48
2023-01-19T13:52:25.213Z,2.54
2023-01-19T13:53:27.017Z,2.54
2023-01-19T13:54:28.823Z,2.58
2023-01-19T13:55:31.167Z,2.59
2023-01-19T13:56:32.701Z,2.63
2023-01-19T13:57:40.435Z,2.36
2023-01-19T13:58:42.108Z,2.38
2023-01-19T13:59:43.551Z,2.44
2023-01-19T14:00:45.650Z,2.46
2023-01-19T14:01:47.783Z,2.41
2023-01-19T14:03:16.399Z,2.48
2023-01-19T14:04:31.766Z,2.52
2023-01-19T14:05:33.137Z,2.54
2023-01-19T14:06:46.267Z,2.54
2023-01-19T14:07:48.867Z,2.42
2023-01-19T14:09:07.000Z,2.41
2023-01-19T14:10:14.392Z,2.34
2023-01-19T14:11:15.875Z,2.38
2023-01-19T14:12:18.525Z,2.38
2023-01-19T14:13:26.310Z,2.45
2023-01-19T14:14:28.338Z,2.43